Time;durP1;ratioP1;P1;durP2;ratioP2;P2;SDS_P1;SDS_P2;PMS_P1;PMS_P2;Temp;Humidity;BMP_temperature;BMP_pressure;BME280_temperature;BME280_humidity;BME280_pressure;Samples;Min_cycle;Max_cycle;Signal;HPM_P1;HPM_P2
2021/03/13 00:02:18;;;;;;;;;;;;;;;2.41;74.96;99221.41;5136578;27;20338;-69
2021/03/13 00:04:46;;;;;;;;;;;;;;;2.34;74.60;99218.69;5136582;27;20369;-69
2021/03/13 00:07:14;;;;;;;;;;;;;;;2.28;74.78;99214.38;5136431;27;20381;-69
2021/03/13 00:09:45;;;;;;;;;;;;;;;2.27;74.98;99217.72;5136460;27;19923;-69
2021/03/13 00:12:12;;;;;;;;;;;;;;;2.30;74.76;99217.78;5136349;27;19924;-69
2021/03/13 00:14:40;;;;;;;;;;;;;;;2.21;75.24;99227.63;5136616;27;19928;-69
2021/03/13 00:17:08;;;;;;;;;;;;;;;2.18;75.06;99224.19;5136320;27;19923;-69
2021/03/13 00:19:35;;;;;;;;;;;;;;;2.11;74.61;99224.84;5136474;27;19947;-69
2021/03/13 00:22:03;;;;;;;;;;;;;;;1.96;74.50;99225.31;5136264;27;19977;-69
2021/03/13 00:24:32;;;;;;;;;;;;;;;1.93;74.99;99222.72;5136138;27;19923;-70
2021/03/13 00:26:59;;;;;;;;;;;;;;;1.94;74.68;99220.22;5136143;27;19927;-69
2021/03/13 00:29:27;;;;;;;;;;;;;;;1.84;74.68;99219.97;5136057;27;19966;-69
2021/03/13 00:31:55;;;;;;;;;;;;;;;1.65;75.35;99217.78;5135962;27;19923;-69
2021/03/13 00:34:23;;;;;;;;;;;;;;;1.68;75.05;99212.81;5135924;27;19967;-69
2021/03/13 00:36:50;;;;;;;;;;;;;;;1.77;75.54;99213.06;5136224;27;19927;-69
2021/03/13 00:39:18;;;;;;;;;;;;;;;1.81;74.97;99212.31;5136084;27;20315;-69
2021/03/13 00:41:47;;;;;;;;;;;;;;;1.73;75.08;99211.25;5117788;27;20372;-69
2021/03/13 00:44:15;;;;;;;;;;;;;;;1.64;75.26;99201.81;5135791;27;19927;-69
2021/03/13 00:46:43;;;;;;;;;;;;;;;1.62;75.34;99202.59;5135715;27;19923;-69
2021/03/13 00:49:11;;;;;;;;;;;;;;;1.54;75.49;99193.97;5135704;27;19930;-70
2021/03/13 00:51:39;;;;;;;;;;;;;;;1.53;75.67;99197.31;5117264;27;19923;-70
2021/03/13 00:54:08;;;;;;;;;;;;;;;1.56;75.52;99199.94;5135344;27;19959;-70
2021/03/13 00:56:36;;;;;;;;;;;;;;;1.57;76.23;99199.09;5135626;27;19930;-69
2021/03/13 00:59:05;;;;;;;;;;;;;;;1.66;76.28;99204.38;5136054;27;19930;-69
2021/03/13 01:01:33;;;;;;;;;;;;;;;1.80;75.60;99203.09;5116947;27;19930;-69
2021/03/13 01:04:01;;;;;;;;;;;;;;;1.76;76.26;99202.16;5135484;27;19930;-69
2021/03/13 01:06:28;;;;;;;;;;;;;;;1.63;76.01;99204.31;5117069;27;19923;-69
2021/03/13 01:08:56;;;;;;;;;;;;;;;1.55;76.33;99196.56;5135370;27;19929;-69
2021/03/13 01:11:30;;;;;;;;;;;;;;;1.64;76.27;99206.00;5117285;27;19927;-69
2021/03/13 01:14:03;;;;;;;;;;;;;;;1.65;75.91;99197.66;5117147;27;19951;-69
2021/03/13 01:16:39;;;;;;;;;;;;;;;1.63;76.25;99199.28;5117354;27;20274;-69
2021/03/13 01:19:08;;;;;;;;;;;;;;;1.68;76.52;99202.78;5135412;27;19923;-69
2021/03/13 01:21:36;;;;;;;;;;;;;;;1.73;76.53;99202.06;5116948;27;19924;-69
2021/03/13 01:24:08;;;;;;;;;;;;;;;1.75;76.33;99202.13;5117351;27;19924;-69
2021/03/13 01:26:40;;;;;;;;;;;;;;;1.85;76.25;99199.00;5135217;27;20300;-69
2021/03/13 01:29:11;;;;;;;;;;;;;;;1.97;75.90;99194.28;5116791;27;20326;-69
2021/03/13 01:31:45;;;;;;;;;;;;;;;2.03;76.15;99184.38;5135025;27;19931;-69
2021/03/13 01:34:14;;;;;;;;;;;;;;;2.06;76.01;99187.00;5117040;28;19927;-69
2021/03/13 01:36:50;;;;;;;;;;;;;;;2.15;75.57;99189.72;5135104;27;19931;-69
2021/03/13 01:39:18;;;;;;;;;;;;;;;2.22;75.39;99184.03;5134955;27;19953;-69
2021/03/13 01:41:46;;;;;;;;;;;;;;;2.19;75.52;99196.53;5116811;28;20355;-69
2021/03/13 01:44:15;;;;;;;;;;;;;;;2.17;75.15;99190.59;5116580;28;19935;-69
2021/03/13 01:46:43;;;;;;;;;;;;;;;2.16;75.33;99183.84;5116708;28;20021;-69
2021/03/13 01:49:14;;;;;;;;;;;;;;;2.20;75.49;99185.66;5135166;28;19930;-69
2021/03/13 01:51:42;;;;;;;;;;;;;;;2.31;75.13;99188.41;5116518;28;19930;-70
2021/03/13 01:54:12;;;;;;;;;;;;;;;2.27;74.96;99197.56;5116635;28;19930;-70
2021/03/13 01:56:41;;;;;;;;;;;;;;;2.26;75.07;99200.88;5134807;28;19928;-69
2021/03/13 01:59:09;;;;;;;;;;;;;;;2.32;75.21;99203.56;5116514;28;19953;-69
2021/03/13 02:01:44;;;;;;;;;;;;;;;2.29;74.92;99216.06;5134687;28;19973;-69
2021/03/13 02:04:16;;;;;;;;;;;;;;;2.21;75.15;99204.13;5116767;28;19996;-69
2021/03/13 02:06:58;;;;;;;;;;;;;;;2.30;75.53;99206.88;5116838;28;19966;-69
2021/03/13 02:09:29;;;;;;;;;;;;;;;2.28;74.74;99194.22;5116418;28;20393;-70
2021/03/13 02:12:05;;;;;;;;;;;;;;;2.31;75.20;99191.78;5116438;28;19927;-69
2021/03/13 02:14:36;;;;;;;;;;;;;;;2.33;74.91;99200.22;5137422;27;19924;-69
2021/03/13 02:17:12;;;;;;;;;;;;;;;2.21;74.97;99197.41;5120693;27;19924;-69
2021/03/13 02:19:53;;;;;;;;;;;;;;;2.18;74.99;99197.34;5120339;27;19923;-69
2021/03/13 02:22:24;;;;;;;;;;;;;;;2.17;74.93;99200.69;5138662;27;19976;-69
2021/03/13 02:25:02;;;;;;;;;;;;;;;2.20;75.03;99195.72;5120187;27;19930;-69
2021/03/13 02:27:40;;;;;;;;;;;;;;;2.16;75.09;99193.09;5120297;27;20360;-70
2021/03/13 02:30:22;;;;;;;;;;;;;;;2.17;75.56;99195.66;5120170;27;19968;-69
2021/03/13 02:33:02;;;;;;;;;;;;;;;2.09;75.27;99202.13;5120405;27;19931;-69
2021/03/13 02:35:47;;;;;;;;;;;;;;;2.03;75.74;99204.53;5120282;27;20018;-69
2021/03/13 02:38:18;;;;;;;;;;;;;;;2.03;75.62;99196.97;5138342;27;20381;-69
2021/03/13 02:40:47;;;;;;;;;;;;;;;2.03;75.85;99181.88;5120158;27;19928;-69
2021/03/13 02:43:17;;;;;;;;;;;;;;;1.96;75.97;99185.91;5102950;27;19924;-70
2021/03/13 02:45:49;;;;;;;;;;;;;;;1.76;75.84;99186.19;5120228;27;19923;-69
2021/03/13 02:48:19;;;;;;;;;;;;;;;1.76;75.56;99188.72;5119807;27;19923;-70
2021/03/13 02:50:50;;;;;;;;;;;;;;;1.67;75.98;99180.94;5119870;27;19924;-69
2021/03/13 02:53:24;;;;;;;;;;;;;;;1.63;75.91;99174.13;5119901;27;19923;-69
2021/03/13 02:55:55;;;;;;;;;;;;;;;1.66;75.75;99175.03;5116339;28;19923;-69
2021/03/13 02:58:26;;;;;;;;;;;;;;;1.47;76.01;99177.03;5116432;28;20338;-69
2021/03/13 03:00:56;;;;;;;;;;;;;;;1.40;75.53;99165.09;5116452;28;20399;-69
2021/03/13 03:03:24;;;;;;;;;;;;;;;1.21;76.33;99172.16;5117296;28;19923;-69
2021/03/13 03:06:15;;;;;;;;;;;;;;;1.24;75.95;99159.69;5117435;28;20026;-69
2021/03/13 03:08:47;;;;;;;;;;;;;;;1.12;75.98;99169.41;5116042;28;19931;-69
2021/03/13 03:11:21;;;;;;;;;;;;;;;1.14;76.24;99170.28;5116017;28;19927;-69
2021/03/13 03:13:53;;;;;;;;;;;;;;;1.25;76.56;99163.03;5115916;28;19977;-69
2021/03/13 03:16:24;;;;;;;;;;;;;;;1.25;76.79;99161.38;5116110;28;20305;-69
2021/03/13 03:18:56;;;;;;;;;;;;;;;1.27;76.40;99157.22;5115863;28;20347;-69
2021/03/13 03:21:26;;;;;;;;;;;;;;;1.29;76.70;99152.28;5116021;28;19948;-70
2021/03/13 03:23:57;;;;;;;;;;;;;;;1.47;76.88;99172.00;5116288;28;19924;-70
2021/03/13 03:26:25;;;;;;;;;;;;;;;1.51;77.06;99171.28;5115774;28;19931;-70
2021/03/13 03:28:53;;;;;;;;;;;;;;;1.57;76.89;99168.94;5115630;28;19931;-69
2021/03/13 03:31:24;;;;;;;;;;;;;;;1.61;76.25;99176.59;5115459;28;19923;-69
2021/03/13 03:33:53;;;;;;;;;;;;;;;1.52;76.46;99178.00;5115534;28;19924;-70
2021/03/13 03:36:21;;;;;;;;;;;;;;;1.49;76.04;99178.78;5115369;28;20388;-69
2021/03/13 03:38:54;;;;;;;;;;;;;;;1.46;76.24;99175.34;5116665;28;19923;-70
2021/03/13 03:41:29;;;;;;;;;;;;;;;1.40;76.05;99175.16;5115348;28;20014;-69
2021/03/13 03:44:02;;;;;;;;;;;;;;;1.34;76.15;99184.25;5115314;28;19928;-70
2021/03/13 03:46:35;;;;;;;;;;;;;;;1.34;76.31;99179.22;5115538;28;20011;-70
2021/03/13 03:49:05;;;;;;;;;;;;;;;1.37;75.96;99180.13;5098315;28;20339;-70
2021/03/13 03:51:40;;;;;;;;;;;;;;;1.40;76.36;99185.22;5115360;28;19930;-69
2021/03/13 03:54:15;;;;;;;;;;;;;;;1.42;76.53;99188.66;5117072;27;20313;-70
2021/03/13 03:56:43;;;;;;;;;;;;;;;1.40;76.12;99185.22;5136857;27;20401;-70
2021/03/13 03:59:14;;;;;;;;;;;;;;;1.43;76.61;99185.31;5136698;27;20358;-70
2021/03/13 04:01:45;;;;;;;;;;;;;;;1.34;76.25;99196.81;5136670;27;19923;-70
2021/03/13 04:04:13;;;;;;;;;;;;;;;1.43;76.83;99187.81;5136629;27;19924;-70
2021/03/13 04:06:42;;;;;;;;;;;;;;;1.40;76.94;99186.06;5136590;27;19966;-70
2021/03/13 04:09:11;;;;;;;;;;;;;;;1.38;76.55;99194.38;5136519;27;20121;-70
2021/03/13 04:11:39;;;;;;;;;;;;;;;1.32;76.47;99198.44;5136406;27;19931;-70
2021/03/13 04:14:08;;;;;;;;;;;;;;;1.29;76.57;99198.38;5136383;27;19924;-70
2021/03/13 04:16:36;;;;;;;;;;;;;;;1.29;76.58;99203.41;5136387;27;19924;-70
2021/03/13 04:19:05;;;;;;;;;;;;;;;1.22;76.67;99198.97;5136248;27;19928;-70
2021/03/13 04:21:32;;;;;;;;;;;;;;;1.16;76.71;99201.31;5136551;27;19927;-70
2021/03/13 04:24:01;;;;;;;;;;;;;;;1.13;76.33;99206.25;5136203;27;19977;-70
2021/03/13 04:26:31;;;;;;;;;;;;;;;1.10;76.86;99191.13;5136231;27;20335;-70
2021/03/13 04:28:59;;;;;;;;;;;;;;;0.93;76.36;99189.78;5136083;27;19966;-70
2021/03/13 04:31:28;;;;;;;;;;;;;;;0.96;76.47;99197.38;5136137;27;19923;-70
2021/03/13 04:33:58;;;;;;;;;;;;;;;0.88;76.28;99182.91;5136358;27;19930;-70
2021/03/13 04:36:28;;;;;;;;;;;;;;;0.73;76.53;99183.31;5135376;27;19923;-70
2021/03/13 04:38:58;;;;;;;;;;;;;;;0.70;76.33;99193.25;5136003;27;19923;-69
2021/03/13 04:41:26;;;;;;;;;;;;;;;0.68;76.57;99200.75;5135920;27;19935;-70
2021/03/13 04:43:57;;;;;;;;;;;;;;;0.72;76.75;99201.69;5135910;27;19924;-70
2021/03/13 04:46:26;;;;;;;;;;;;;;;0.80;77.15;99180.16;5136078;27;20403;-70
2021/03/13 04:48:53;;;;;;;;;;;;;;;0.81;76.97;99184.41;5135729;27;19924;-70
2021/03/13 04:51:22;;;;;;;;;;;;;;;0.75;77.04;99186.72;5135696;27;19931;-70
2021/03/13 04:53:50;;;;;;;;;;;;;;;0.79;76.67;99196.06;5135509;27;20021;-70
2021/03/13 04:56:18;;;;;;;;;;;;;;;0.66;76.96;99187.31;5135479;27;19962;-70
2021/03/13 04:58:46;;;;;;;;;;;;;;;0.57;77.01;99188.69;5135558;27;19923;-70
2021/03/13 05:01:14;;;;;;;;;;;;;;;0.52;77.17;99197.72;5135537;27;19930;-70
2021/03/13 05:03:41;;;;;;;;;;;;;;;0.55;77.26;99192.81;5135430;27;19927;-70
2021/03/13 05:06:10;;;;;;;;;;;;;;;0.51;77.32;99196.00;5135782;27;19968;-70
2021/03/13 05:08:38;;;;;;;;;;;;;;;0.56;77.71;99195.34;5135344;27;19924;-70
2021/03/13 05:11:06;;;;;;;;;;;;;;;0.71;77.61;99197.47;5135938;27;19923;-70
2021/03/13 05:13:34;;;;;;;;;;;;;;;0.79;77.44;99197.72;5135171;27;20036;-70
2021/03/13 05:16:01;;;;;;;;;;;;;;;0.84;77.59;99199.53;5135283;27;19927;-70
2021/03/13 05:18:30;;;;;;;;;;;;;;;0.85;77.50;99186.19;5135447;27;20314;-70
2021/03/13 05:20:57;;;;;;;;;;;;;;;0.86;77.41;99180.38;5135459;27;19923;-70
2021/03/13 05:23:25;;;;;;;;;;;;;;;0.91;77.39;99183.00;5135341;27;20392;-69
2021/03/13 05:25:53;;;;;;;;;;;;;;;0.80;77.59;99180.16;5135103;27;19924;-70
2021/03/13 05:28:21;;;;;;;;;;;;;;;0.85;77.90;99183.66;5135411;27;19923;-70
2021/03/13 05:30:50;;;;;;;;;;;;;;;0.97;77.88;99181.50;5116777;27;19968;-69
2021/03/13 05:33:18;;;;;;;;;;;;;;;1.03;78.16;99178.34;5135878;27;20020;-70
2021/03/13 05:35:45;;;;;;;;;;;;;;;1.11;78.36;99182.75;5135289;27;20010;-70
2021/03/13 05:38:13;;;;;;;;;;;;;;;1.23;78.11;99184.75;5134998;27;19968;-70
2021/03/13 05:40:42;;;;;;;;;;;;;;;1.28;78.28;99189.09;5134912;27;19923;-70
2021/03/13 05:43:11;;;;;;;;;;;;;;;1.35;78.47;99192.63;5134948;28;20042;-69
2021/03/13 05:45:41;;;;;;;;;;;;;;;1.34;78.21;99191.78;5134872;28;20385;-69
2021/03/13 05:48:09;;;;;;;;;;;;;;;1.42;78.79;99188.66;5135617;27;19923;-70
2021/03/13 05:50:37;;;;;;;;;;;;;;;1.52;78.37;99181.38;5139189;27;19951;-69
2021/03/13 05:53:10;;;;;;;;;;;;;;;1.67;78.55;99180.94;5139587;27;20378;-70
2021/03/13 05:55:38;;;;;;;;;;;;;;;1.77;78.57;99183.75;5139070;27;20369;-70
2021/03/13 05:58:07;;;;;;;;;;;;;;;1.85;78.50;99191.47;5139121;27;19931;-70
2021/03/13 06:00:36;;;;;;;;;;;;;;;1.86;77.81;99188.13;5139328;27;19923;-70
2021/03/13 06:03:05;;;;;;;;;;;;;;;1.91;78.43;99187.47;5138908;27;20454;-69
2021/03/13 06:05:33;;;;;;;;;;;;;;;1.93;77.98;99184.97;5120788;27;19924;-69
2021/03/13 06:08:02;;;;;;;;;;;;;;;2.00;77.89;99186.81;5120762;27;19927;-69
2021/03/13 06:10:29;;;;;;;;;;;;;;;2.09;78.16;99176.97;5138871;27;20297;-69
2021/03/13 06:12:57;;;;;;;;;;;;;;;2.16;77.97;99178.81;5138691;27;19923;-69
2021/03/13 06:15:26;;;;;;;;;;;;;;;2.26;78.90;99187.44;5139616;27;19931;-69
2021/03/13 06:17:55;;;;;;;;;;;;;;;2.31;78.28;99189.28;5138642;27;19953;-69
2021/03/13 06:20:32;;;;;;;;;;;;;;;2.32;77.83;99191.00;5138688;27;20059;-69
2021/03/13 06:23:12;;;;;;;;;;;;;;;2.42;78.10;99187.88;5138613;27;20023;-69
2021/03/13 06:25:40;;;;;;;;;;;;;;;2.61;79.08;99189.16;5120368;27;19931;-69
2021/03/13 06:28:09;;;;;;;;;;;;;;;2.75;78.77;99192.81;5138421;27;19927;-69
2021/03/13 06:30:38;;;;;;;;;;;;;;;2.87;78.56;99177.09;5138728;27;19923;-70
2021/03/13 06:33:20;;;;;;;;;;;;;;;2.98;79.50;99189.13;5138378;27;19931;-69
2021/03/13 06:35:49;;;;;;;;;;;;;;;2.96;79.43;99193.28;5138458;27;19923;-69
2021/03/13 06:38:18;;;;;;;;;;;;;;;2.98;79.56;99195.81;5138562;27;19923;-69
2021/03/13 06:40:46;;;;;;;;;;;;;;;3.03;79.56;99199.28;5138264;27;19929;-69
2021/03/13 06:43:24;;;;;;;;;;;;;;;3.07;79.14;99196.84;5138259;27;19927;-69
2021/03/13 06:46:00;;;;;;;;;;;;;;;3.11;79.75;99195.28;5138165;27;20312;-69
2021/03/13 06:48:35;;;;;;;;;;;;;;;3.21;79.37;99214.81;5139036;27;19923;-69
2021/03/13 06:51:13;;;;;;;;;;;;;;;3.21;79.38;99209.78;5138028;27;19927;-69
2021/03/13 06:53:42;;;;;;;;;;;;;;;3.22;80.04;99213.97;5138015;27;19924;-69
2021/03/13 06:56:10;;;;;;;;;;;;;;;3.31;79.40;99221.75;5137717;27;19923;-69
2021/03/13 06:58:38;;;;;;;;;;;;;;;3.38;79.71;99223.59;5137944;27;19932;-70
2021/03/13 07:01:06;;;;;;;;;;;;;;;3.42;79.62;99222.81;5137271;27;19930;-69
2021/03/13 07:03:34;;;;;;;;;;;;;;;3.57;80.28;99214.69;5137879;27;19931;-70
2021/03/13 07:06:15;;;;;;;;;;;;;;;3.73;80.09;99216.69;5137755;27;19935;-69
2021/03/13 07:08:44;;;;;;;;;;;;;;;3.89;80.62;99219.50;5137721;27;19931;-70
2021/03/13 07:11:17;;;;;;;;;;;;;;;4.04;80.52;99212.22;5137560;27;20315;-70
2021/03/13 07:13:45;;;;;;;;;;;;;;;4.19;80.57;99221.72;5137624;27;19924;-69
2021/03/13 07:16:24;;;;;;;;;;;;;;;4.33;80.23;99221.97;5137446;27;19924;-70
2021/03/13 07:18:53;;;;;;;;;;;;;;;4.44;80.60;99228.88;5137606;27;19923;-69
2021/03/13 07:21:21;;;;;;;;;;;;;;;4.54;80.18;99224.81;5137463;27;20175;-69
2021/03/13 07:23:53;;;;;;;;;;;;;;;4.64;80.45;99224.13;5137383;27;19923;-69
2021/03/13 07:26:24;;;;;;;;;;;;;;;4.72;80.50;99227.66;5137732;27;19985;-69
2021/03/13 07:28:56;;;;;;;;;;;;;;;4.81;80.40;99232.84;5137268;27;19927;-69
2021/03/13 07:31:26;;;;;;;;;;;;;;;4.93;80.80;99227.97;5137266;27;20014;-69
2021/03/13 07:33:55;;;;;;;;;;;;;;;5.02;80.38;99233.13;5136971;27;20354;-69
2021/03/13 07:36:24;;;;;;;;;;;;;;;5.08;80.34;99242.50;5137466;27;19970;-69
2021/03/13 07:38:57;;;;;;;;;;;;;;;5.15;80.47;99247.66;5136934;27;19955;-69
2021/03/13 07:41:25;;;;;;;;;;;;;;;5.20;80.69;99253.63;5137393;27;19927;-69
2021/03/13 07:43:53;;;;;;;;;;;;;;;5.28;80.87;99257.09;5136928;27;19976;-69
2021/03/13 07:46:22;;;;;;;;;;;;;;;5.36;80.47;99260.59;5137289;27;19931;-69
2021/03/13 07:48:49;;;;;;;;;;;;;;;5.43;80.33;99247.19;5136851;27;19953;-69
2021/03/13 07:51:18;;;;;;;;;;;;;;;5.49;80.35;99255.69;5137088;27;19924;-69
2021/03/13 07:53:46;;;;;;;;;;;;;;;5.51;80.59;99259.09;5136623;27;19923;-69
2021/03/13 07:56:15;;;;;;;;;;;;;;;5.56;80.30;99253.25;5136552;27;19989;-70
2021/03/13 07:58:43;;;;;;;;;;;;;;;5.62;80.18;99250.78;5136747;27;20395;-69
2021/03/13 08:01:12;;;;;;;;;;;;;;;5.68;80.16;99243.28;5136522;27;19923;-70
2021/03/13 08:03:43;;;;;;;;;;;;;;;5.77;80.27;99247.59;5136871;27;19923;-70
2021/03/13 08:06:12;;;;;;;;;;;;;;;5.82;80.14;99249.34;5136617;27;19927;-70
2021/03/13 08:08:40;;;;;;;;;;;;;;;5.91;80.54;99248.63;5136527;27;19923;-69
2021/03/13 08:11:08;;;;;;;;;;;;;;;6.01;80.29;99245.34;5135533;27;19938;-69
2021/03/13 08:13:47;;;;;;;;;;;;;;;6.09;80.28;99239.50;5136374;27;19952;-70
2021/03/13 08:16:19;;;;;;;;;;;;;;;6.18;80.25;99236.25;5136495;27;19976;-70
2021/03/13 08:18:47;;;;;;;;;;;;;;;6.27;79.84;99243.91;5136511;27;19923;-70
2021/03/13 08:21:26;;;;;;;;;;;;;;;6.33;79.73;99243.13;5135988;27;19955;-70
2021/03/13 08:23:54;;;;;;;;;;;;;;;6.39;79.45;99248.25;5136171;27;19923;-69
2021/03/13 08:26:23;;;;;;;;;;;;;;;6.42;79.71;99241.53;5136432;27;19966;-70
2021/03/13 08:28:56;;;;;;;;;;;;;;;6.47;79.97;99244.94;5136449;27;20319;-70
2021/03/13 08:31:36;;;;;;;;;;;;;;;6.54;79.57;99240.78;5136295;27;19924;-70
2021/03/13 08:34:15;;;;;;;;;;;;;;;6.57;79.47;99241.66;5136001;27;20014;-70
2021/03/13 08:36:47;;;;;;;;;;;;;;;6.66;78.93;99236.66;5136363;27;20369;-70
2021/03/13 08:39:18;;;;;;;;;;;;;;;6.71;78.67;99242.63;5136223;27;20368;-70
2021/03/13 08:41:49;;;;;;;;;;;;;;;6.76;78.90;99247.72;5135840;27;19923;-70
2021/03/13 08:44:29;;;;;;;;;;;;;;;6.83;78.91;99239.31;5135871;27;19962;-70
2021/03/13 08:46:57;;;;;;;;;;;;;;;6.95;78.53;99233.47;5135829;27;20006;-70
2021/03/13 08:49:38;;;;;;;;;;;;;;;7.06;78.75;99231.81;5136142;27;19924;-70
2021/03/13 08:52:18;;;;;;;;;;;;;;;7.21;78.23;99227.72;5135820;27;19923;-70
2021/03/13 08:54:48;;;;;;;;;;;;;;;7.40;77.94;99221.03;5135424;27;20365;-70
2021/03/13 08:57:16;;;;;;;;;;;;;;;7.61;77.94;99216.03;5135604;27;19931;-70
2021/03/13 08:59:46;;;;;;;;;;;;;;;8.01;77.31;99215.28;5135139;27;21124;-70
2021/03/13 09:02:15;;;;;;;;;;;;;;;8.32;76.39;99215.38;5135573;27;19923;-70
2021/03/13 09:04:43;;;;;;;;;;;;;;;8.70;76.42;99213.66;5135474;27;19923;-70
2021/03/13 09:07:11;;;;;;;;;;;;;;;8.94;75.31;99205.16;5135392;27;19930;-70
2021/03/13 09:09:40;;;;;;;;;;;;;;;9.01;74.79;99205.13;5135412;27;19924;-70
2021/03/13 09:12:10;;;;;;;;;;;;;;;9.20;74.51;99200.84;5135282;27;20395;-70
2021/03/13 09:14:40;;;;;;;;;;;;;;;9.43;73.67;99209.25;5135675;27;19923;-70
2021/03/13 09:17:08;;;;;;;;;;;;;;;9.55;72.73;99193.09;5135533;27;20292;-70
2021/03/13 09:19:36;;;;;;;;;;;;;;;9.64;72.52;99193.03;5135498;27;19980;-70
2021/03/13 09:22:06;;;;;;;;;;;;;;;9.70;71.73;99187.88;5135121;27;20026;-70
2021/03/13 09:24:34;;;;;;;;;;;;;;;9.86;71.34;99189.53;5135476;27;19923;-70
2021/03/13 09:27:03;;;;;;;;;;;;;;;10.12;71.03;99182.59;5135186;27;20377;-70
2021/03/13 09:29:33;;;;;;;;;;;;;;;10.13;70.18;99183.41;5135074;27;19992;-70
2021/03/13 09:32:04;;;;;;;;;;;;;;;10.14;70.00;99180.88;5135169;27;19931;-70
2021/03/13 09:34:32;;;;;;;;;;;;;;;10.04;69.34;99158.81;5135577;27;19927;-70
2021/03/13 09:37:10;;;;;;;;;;;;;;;10.06;69.42;99172.38;5135078;27;19928;-70
2021/03/13 09:39:38;;;;;;;;;;;;;;;10.05;69.04;99179.19;5135036;27;19924;-70
2021/03/13 09:42:10;;;;;;;;;;;;;;;10.01;68.73;99179.22;5135001;27;20262;-70
2021/03/13 09:44:40;;;;;;;;;;;;;;;9.98;68.59;99169.06;5135249;27;19970;-70
2021/03/13 09:47:12;;;;;;;;;;;;;;;10.06;68.39;99167.28;5134867;28;19924;-70
2021/03/13 09:49:43;;;;;;;;;;;;;;;10.24;67.90;99172.28;5134916;28;19974;-70
2021/03/13 09:52:11;;;;;;;;;;;;;;;10.37;67.57;99161.13;5135069;28;20010;-70
2021/03/13 09:54:39;;;;;;;;;;;;;;;10.60;67.59;99150.72;5134796;28;20421;-70
2021/03/13 09:57:14;;;;;;;;;;;;;;;10.83;67.25;99155.59;5134856;28;19924;-70
2021/03/13 09:59:43;;;;;;;;;;;;;;;10.90;66.73;99144.44;5134874;28;19932;-70
2021/03/13 10:02:13;;;;;;;;;;;;;;;10.91;65.80;99151.25;5134692;28;20328;-70
2021/03/13 10:04:40;;;;;;;;;;;;;;;10.88;65.56;99141.94;5134724;28;19923;-70
2021/03/13 10:07:52;;;;;;;;;;;;;;;10.84;64.59;99139.44;5134758;28;20347;-70
2021/03/13 10:10:20;;;;;;;;;;;;;;;10.99;64.97;99134.16;5134740;28;19924;-70
2021/03/13 10:12:49;;;;;;;;;;;;;;;11.28;63.65;99137.19;5134755;28;19923;-70
2021/03/13 10:15:19;;;;;;;;;;;;;;;11.60;63.46;99124.84;5134633;28;19931;-71
2021/03/13 10:17:53;;;;;;;;;;;;;;;11.58;63.03;99131.69;5134892;28;19930;-71
2021/03/13 10:20:21;;;;;;;;;;;;;;;11.61;62.28;99125.72;5134952;28;19952;-71
2021/03/13 10:22:48;;;;;;;;;;;;;;;11.66;62.00;99114.53;5134415;28;19923;-70
2021/03/13 10:25:16;;;;;;;;;;;;;;;11.54;61.69;99117.25;5134523;28;19923;-70
2021/03/13 10:27:44;;;;;;;;;;;;;;;11.30;61.64;99115.88;5134787;28;19972;-71
2021/03/13 10:30:13;;;;;;;;;;;;;;;11.19;61.94;99121.97;5134399;28;19927;-70
2021/03/13 10:32:47;;;;;;;;;;;;;;;11.14;62.09;99116.09;5134372;28;19923;-70
2021/03/13 10:35:17;;;;;;;;;;;;;;;11.18;62.08;99113.47;5136693;27;19985;-70
2021/03/13 10:37:53;;;;;;;;;;;;;;;11.18;62.20;99107.53;5138372;27;19934;-70
2021/03/13 10:40:31;;;;;;;;;;;;;;;11.17;61.27;99109.25;5138322;27;19927;-70
2021/03/13 10:43:10;;;;;;;;;;;;;;;11.20;60.42;99103.25;5138128;27;19931;-70
2021/03/13 10:45:38;;;;;;;;;;;;;;;11.20;60.26;99104.09;5138099;27;19959;-70
2021/03/13 10:48:12;;;;;;;;;;;;;;;11.24;59.91;99094.69;5138380;27;20010;-70
2021/03/13 10:50:40;;;;;;;;;;;;;;;11.27;59.91;99094.66;5138017;27;20430;-70
2021/03/13 10:53:19;;;;;;;;;;;;;;;11.42;59.23;99085.06;5137978;27;19970;-70
2021/03/13 10:55:52;;;;;;;;;;;;;;;11.95;58.65;99091.97;5137915;27;20001;-71
2021/03/13 10:58:22;;;;;;;;;;;;;;;12.45;58.06;99067.25;5138021;27;19972;-70
2021/03/13 11:00:49;;;;;;;;;;;;;;;12.85;57.16;99073.31;5138213;27;20012;-71
2021/03/13 11:03:18;;;;;;;;;;;;;;;13.18;56.26;99062.41;5137836;27;20014;-71
2021/03/13 11:05:47;;;;;;;;;;;;;;;13.37;55.44;99061.13;5137947;27;19930;-70
2021/03/13 11:08:15;;;;;;;;;;;;;;;13.30;54.75;99057.00;5137758;27;19928;-70
2021/03/13 11:10:43;;;;;;;;;;;;;;;13.19;55.38;99041.03;5137600;27;20377;-71
2021/03/13 11:13:11;;;;;;;;;;;;;;;13.06;54.69;99047.28;5137609;27;19937;-71
2021/03/13 11:15:39;;;;;;;;;;;;;;;12.89;53.95;99049.31;5137579;27;19992;-71
2021/03/13 11:18:07;;;;;;;;;;;;;;;12.92;53.46;99039.00;5137630;27;19923;-71
2021/03/13 11:20:36;;;;;;;;;;;;;;;12.99;53.66;99038.00;5137447;27;19928;-71
2021/03/13 11:23:04;;;;;;;;;;;;;;;13.03;53.70;99021.69;5137451;27;20342;-70
2021/03/13 11:25:32;;;;;;;;;;;;;;;13.00;53.39;99016.66;5137443;27;19931;-71
2021/03/13 11:28:00;;;;;;;;;;;;;;;13.00;53.63;99014.09;5137331;27;19923;-70
2021/03/13 11:30:28;;;;;;;;;;;;;;;13.01;54.30;99013.19;5137674;27;19968;-70
2021/03/13 11:32:55;;;;;;;;;;;;;;;12.92;53.65;99012.56;5137453;27;19923;-70
2021/03/13 11:35:24;;;;;;;;;;;;;;;12.76;53.36;99012.03;5137184;27;20115;-71
2021/03/13 11:37:52;;;;;;;;;;;;;;;12.70;53.77;98996.78;5137160;27;19930;-70
2021/03/13 11:40:21;;;;;;;;;;;;;;;12.70;54.41;99002.75;5137418;27;19930;-71
2021/03/13 11:42:50;;;;;;;;;;;;;;;12.71;55.10;98993.38;5137448;27;19923;-70
2021/03/13 11:45:19;;;;;;;;;;;;;;;12.74;54.41;98998.44;5136801;27;19948;-70
2021/03/13 11:47:46;;;;;;;;;;;;;;;12.77;54.45;98986.38;5136276;27;19924;-70
2021/03/13 11:50:16;;;;;;;;;;;;;;;12.87;54.83;98989.59;5136908;27;19931;-70
2021/03/13 11:52:44;;;;;;;;;;;;;;;12.96;54.39;98984.28;5136916;27;19923;-71
2021/03/13 11:55:13;;;;;;;;;;;;;;;13.39;53.74;98977.34;5136656;27;19959;-70
2021/03/13 11:57:42;;;;;;;;;;;;;;;13.67;52.81;98964.72;5136725;27;20014;-70
2021/03/13 12:00:10;;;;;;;;;;;;;;;13.56;52.24;98978.66;5136749;27;19929;-71
2021/03/13 12:02:39;;;;;;;;;;;;;;;13.66;52.19;98968.16;5136619;27;19923;-70
2021/03/13 12:05:08;;;;;;;;;;;;;;;13.76;52.26;98951.66;5136803;27;19923;-71
2021/03/13 12:07:36;;;;;;;;;;;;;;;13.85;51.81;98942.88;5136613;27;19924;-71
2021/03/13 12:10:04;;;;;;;;;;;;;;;13.92;51.31;98946.97;5136528;27;20022;-71
2021/03/13 12:12:33;;;;;;;;;;;;;;;13.93;51.22;98948.66;5136521;27;19928;-71
2021/03/13 12:15:01;;;;;;;;;;;;;;;13.93;50.74;98933.28;5136717;27;20357;-71
2021/03/13 12:17:29;;;;;;;;;;;;;;;13.90;49.71;98923.94;5136395;27;20365;-70
2021/03/13 12:19:57;;;;;;;;;;;;;;;13.99;50.08;98930.53;5136708;27;20006;-71
2021/03/13 12:22:26;;;;;;;;;;;;;;;13.90;49.85;98923.94;5136269;27;20022;-71
2021/03/13 12:24:54;;;;;;;;;;;;;;;13.79;50.56;98922.53;5136281;27;19924;-71
2021/03/13 12:27:23;;;;;;;;;;;;;;;13.85;50.28;98912.09;5136209;27;19942;-71
2021/03/13 12:29:52;;;;;;;;;;;;;;;13.97;50.29;98909.22;5136163;27;20346;-71
2021/03/13 12:32:19;;;;;;;;;;;;;;;14.06;49.80;98901.25;5136022;27;19930;-71
2021/03/13 12:34:47;;;;;;;;;;;;;;;14.11;49.76;98899.41;5136065;27;19971;-70
2021/03/13 12:37:16;;;;;;;;;;;;;;;13.97;49.82;98892.09;5136241;27;20034;-70
2021/03/13 12:39:44;;;;;;;;;;;;;;;13.84;49.83;98890.78;5135955;27;19963;-70
2021/03/13 12:42:12;;;;;;;;;;;;;;;13.65;49.20;98874.19;5135876;27;19924;-70
2021/03/13 12:44:39;;;;;;;;;;;;;;;13.48;49.18;98871.22;5135804;27;19923;-70
2021/03/13 12:47:08;;;;;;;;;;;;;;;13.35;48.35;98870.66;5135855;27;19980;-70
2021/03/13 12:49:36;;;;;;;;;;;;;;;13.29;48.24;98863.09;5135723;27;19924;-70
2021/03/13 12:52:05;;;;;;;;;;;;;;;13.21;47.92;98871.88;5136080;27;19924;-70
2021/03/13 12:54:32;;;;;;;;;;;;;;;13.14;48.04;98860.94;5135349;27;19980;-70
2021/03/13 12:57:00;;;;;;;;;;;;;;;13.15;49.15;98867.72;5135372;27;19958;-70
2021/03/13 12:59:31;;;;;;;;;;;;;;;13.18;50.19;98854.84;5135660;27;19923;-70
2021/03/13 13:01:58;;;;;;;;;;;;;;;13.19;50.07;98854.00;5135621;27;19924;-70
2021/03/13 13:04:30;;;;;;;;;;;;;;;13.24;50.25;98854.72;5135476;27;19923;-70
2021/03/13 13:06:58;;;;;;;;;;;;;;;13.40;49.49;98858.56;5135590;27;19923;-70
2021/03/13 13:09:38;;;;;;;;;;;;;;;13.73;48.70;98846.59;5135762;27;19923;-70
2021/03/13 13:12:07;;;;;;;;;;;;;;;14.06;48.42;98842.25;5135672;27;19923;-70